createdAt,value
2022-08-05T00:01:35.527Z,95194.09
2022-08-05T00:04:02.507Z,95198.63
2022-08-05T00:06:35.930Z,95205.34
2022-08-05T00:09:04.919Z,95194.25
2022-08-05T00:11:49.105Z,95185.03
2022-08-05T00:14:22.476Z,95193.34
2022-08-05T00:16:54.666Z,95189.75
2022-08-05T00:19:22.768Z,95187.63
2022-08-05T00:21:51.911Z,95187.00
2022-08-05T00:24:24.814Z,95184.66
2022-08-05T00:26:59.077Z,95174.69
2022-08-05T00:29:27.473Z,95180.38
2022-08-05T00:32:12.180Z,95189.00
2022-08-05T00:35:05.197Z,95186.56
2022-08-05T00:37:50.632Z,95184.94
2022-08-05T00:40:28.131Z,95186.81
2022-08-05T00:43:02.696Z,95187.44
2022-08-05T00:45:42.970Z,95186.94
2022-08-05T00:48:12.827Z,95185.63
2022-08-05T00:50:44.064Z,95185.19
2022-08-05T00:54:00.110Z,95194.28
2022-08-05T00:55:58.270Z,95194.34
2022-08-05T00:58:27.402Z,95185.84
2022-08-05T01:00:55.020Z,95178.97
2022-08-05T01:03:22.762Z,95196.63
2022-08-05T01:05:54.824Z,95178.94
2022-08-05T01:08:30.730Z,95186.72
2022-08-05T01:11:22.191Z,95188.72
2022-08-05T01:14:04.210Z,95190.75
2022-08-05T01:16:44.118Z,95191.50
2022-08-05T01:19:46.390Z,95175.56
2022-08-05T01:22:27.907Z,95189.53
2022-08-05T01:25:22.777Z,95191.13
2022-08-05T01:28:06.892Z,95193.66
2022-08-05T01:30:39.882Z,95186.50
2022-08-05T01:33:19.728Z,95201.00
2022-08-05T01:35:51.177Z,95175.25
2022-08-05T01:38:27.147Z,95196.22
2022-08-05T01:40:57.497Z,95199.88
2022-08-05T01:43:25.836Z,95205.94
2022-08-05T01:45:56.458Z,95197.53
2022-08-05T01:48:26.858Z,95196.44
2022-08-05T01:50:56.477Z,95197.53
2022-08-05T01:53:54.901Z,95201.38
2022-08-05T01:58:11.157Z,95203.91
2022-08-05T01:59:06.536Z,95208.72
2022-08-05T02:01:37.987Z,95201.78
2022-08-05T02:04:10.266Z,95197.69
2022-08-05T02:06:39.120Z,95200.22
2022-08-05T02:09:07.382Z,95191.19
2022-08-05T02:11:48.177Z,95193.31
2022-08-05T02:14:27.091Z,95192.31
2022-08-05T02:16:56.210Z,95195.31
2022-08-05T02:19:42.724Z,95191.66
2022-08-05T02:22:27.285Z,95198.22
2022-08-05T02:25:05.207Z,95191.75
2022-08-05T02:27:58.059Z,95185.06
2022-08-05T02:30:26.975Z,95189.28
2022-08-05T02:32:57.083Z,95181.50
2022-08-05T02:35:28.198Z,95188.88
2022-08-05T02:38:02.161Z,95180.81
2022-08-05T02:40:30.063Z,95184.63
2022-08-05T02:42:59.129Z,95193.06
2022-08-05T02:45:28.458Z,95194.44
2022-08-05T02:48:06.427Z,95188.28
2022-08-05T02:50:43.886Z,95184.59
2022-08-05T02:53:19.168Z,95184.03
2022-08-05T02:55:54.114Z,95191.06
2022-08-05T02:58:26.766Z,95191.97
2022-08-05T03:00:56.734Z,95192.88
2022-08-05T03:03:24.200Z,95184.41
2022-08-05T03:06:56.816Z,95181.47
2022-08-05T03:08:42.583Z,95197.09
2022-08-05T03:11:55.164Z,95195.19
2022-08-05T03:14:13.835Z,95200.41
2022-08-05T03:16:41.722Z,95198.44
2022-08-05T03:19:17.123Z,95200.53
2022-08-05T03:21:55.339Z,95200.81
2022-08-05T03:24:29.419Z,95199.50
2022-08-05T03:26:58.627Z,95201.03
2022-08-05T03:29:45.302Z,95198.22
2022-08-05T03:32:14.419Z,95195.41
2022-08-05T03:34:50.542Z,95197.09
2022-08-05T03:37:20.177Z,95196.84
2022-08-05T03:39:59.182Z,95192.88
2022-08-05T03:42:29.214Z,95179.69
2022-08-05T03:44:58.843Z,95193.72
2022-08-05T03:47:30.355Z,95196.69
2022-08-05T03:50:01.939Z,95201.03
2022-08-05T03:52:38.007Z,95207.38
2022-08-05T03:56:05.718Z,95198.59
2022-08-05T03:58:17.904Z,95202.88
2022-08-05T04:00:46.457Z,95203.44
2022-08-05T04:03:28.386Z,95203.22
2022-08-05T04:05:58.095Z,95194.84
2022-08-05T04:08:36.205Z,95204.25
2022-08-05T04:11:06.035Z,95197.41
2022-08-05T04:13:50.442Z,95193.19
2022-08-05T04:16:24.959Z,95201.63
2022-08-05T04:18:59.955Z,95196.78
2022-08-05T04:22:09.084Z,95195.97
2022-08-05T04:24:18.889Z,95197.25
2022-08-05T04:26:49.224Z,95189.28
2022-08-05T04:29:15.952Z,95209.13
2022-08-05T04:31:43.021Z,95192.75
2022-08-05T04:34:33.031Z,95190.19
2022-08-05T04:36:56.796Z,95185.06
2022-08-05T04:39:23.666Z,95196.00
2022-08-05T04:41:51.394Z,95188.28
2022-08-05T04:44:21.384Z,95196.00
2022-08-05T04:46:56.089Z,95194.88
2022-08-05T04:49:24.618Z,95191.44
2022-08-05T04:52:05.469Z,95204.50
2022-08-05T04:54:34.598Z,95188.63
2022-08-05T04:57:01.558Z,95196.13
2022-08-05T04:59:40.558Z,95192.88
2022-08-05T05:02:37.630Z,95193.53
2022-08-05T05:05:02.365Z,95188.16
2022-08-05T05:07:32.110Z,95177.41
2022-08-05T05:10:02.214Z,95192.19
2022-08-05T05:12:29.985Z,95184.16
2022-08-05T05:14:56.784Z,95180.44
2022-08-05T05:17:55.909Z,95183.50
2022-08-05T05:20:12.672Z,95180.97
2022-08-05T05:22:40.675Z,95182.09
2022-08-05T05:25:16.629Z,95181.19
2022-08-05T05:27:48.554Z,95180.69
2022-08-05T05:30:30.616Z,95184.53
2022-08-05T05:33:00.770Z,95182.16
2022-08-05T05:35:31.647Z,95181.91
2022-08-05T05:38:08.896Z,95182.91
2022-08-05T05:40:36.472Z,95183.16
2022-08-05T05:43:03.421Z,95180.66
2022-08-05T05:45:30.407Z,95183.13
2022-08-05T05:48:05.512Z,95181.53
2022-08-05T05:50:44.256Z,95180.25
2022-08-05T05:53:22.089Z,95180.03
2022-08-05T05:55:52.469Z,95177.81
2022-08-05T05:58:31.428Z,95182.88
2022-08-05T06:01:13.135Z,95180.88
2022-08-05T06:04:01.078Z,95182.91
2022-08-05T06:06:31.005Z,95182.25
2022-08-05T06:08:58.671Z,95189.75
2022-08-05T06:11:26.018Z,95177.44
2022-08-05T06:13:54.054Z,95186.38
2022-08-05T06:16:28.321Z,95187.94
2022-08-05T06:18:59.961Z,95190.28
2022-08-05T06:21:37.641Z,95195.44
2022-08-05T06:24:12.193Z,95179.31
2022-08-05T06:26:51.478Z,95182.34
2022-08-05T06:29:25.389Z,95194.13
2022-08-05T06:32:21.051Z,95181.13
2022-08-05T06:34:53.567Z,95189.41
2022-08-05T06:37:52.276Z,95188.13
2022-08-05T06:40:11.337Z,95174.88
2022-08-05T06:42:39.907Z,95185.16
2022-08-05T06:45:09.350Z,95187.59
2022-08-05T06:48:36.901Z,95177.47
2022-08-05T06:50:24.964Z,95183.38
2022-08-05T06:52:58.821Z,95183.16
2022-08-05T06:55:38.026Z,95175.38
2022-08-05T06:58:29.804Z,95168.69
2022-08-05T07:00:59.538Z,95173.38
2022-08-05T07:03:32.533Z,95165.19
2022-08-05T07:06:05.799Z,95175.09
2022-08-05T07:08:47.822Z,95163.34
2022-08-05T07:11:22.282Z,95173.38
2022-08-05T07:14:15.460Z,95166.31
2022-08-05T07:18:00.620Z,95178.53
2022-08-05T07:20:16.453Z,95172.59
2022-08-05T07:22:28.890Z,95173.09
2022-08-05T07:25:23.584Z,95174.84
2022-08-05T07:27:59.466Z,95177.44
2022-08-05T07:30:33.593Z,95170.72
2022-08-05T07:33:09.270Z,95163.16
2022-08-05T07:36:04.910Z,95159.75
2022-08-05T07:38:33.491Z,95166.94
2022-08-05T07:42:07.355Z,95158.84
2022-08-05T07:43:50.408Z,95162.06
2022-08-05T07:46:24.406Z,95151.31
2022-08-05T07:49:02.294Z,95166.00
2022-08-05T07:51:36.869Z,95169.38
2022-08-05T07:54:05.938Z,95163.22
2022-08-05T07:57:00.287Z,95166.38
2022-08-05T07:59:30.988Z,95163.94
2022-08-05T08:02:07.597Z,95161.22
2022-08-05T08:04:44.755Z,95163.19
2022-08-05T08:07:12.796Z,95161.13
2022-08-05T08:09:39.548Z,95162.81
2022-08-05T08:12:19.967Z,95156.16
2022-08-05T08:14:53.526Z,95159.19
2022-08-05T08:17:21.468Z,95158.34
2022-08-05T08:20:10.719Z,95148.13
2022-08-05T08:22:35.937Z,95160.09
2022-08-05T08:25:16.513Z,95153.84
2022-08-05T08:27:47.534Z,95152.91
2022-08-05T08:30:29.551Z,95150.72
2022-08-05T08:33:04.401Z,95141.03
2022-08-05T08:35:41.584Z,95138.94
2022-08-05T08:38:35.897Z,95136.47
2022-08-05T08:41:09.933Z,95137.03
2022-08-05T08:45:25.274Z,95141.94
2022-08-05T08:46:29.312Z,95142.94
2022-08-05T08:49:06.121Z,95137.41
2022-08-05T08:52:03.268Z,95141.31
2022-08-05T08:54:36.439Z,95129.94
2022-08-05T08:57:11.226Z,95128.13
2022-08-05T08:59:41.864Z,95125.34
2022-08-05T09:02:16.623Z,95129.56
2022-08-05T09:04:58.291Z,95122.28
2022-08-05T09:07:40.135Z,95124.66
2022-08-05T09:10:19.765Z,95116.13
2022-08-05T09:12:51.030Z,95111.50
2022-08-05T09:15:20.319Z,95108.78
2022-08-05T09:17:49.699Z,95107.63
2022-08-05T09:20:36.745Z,95106.47
2022-08-05T09:23:05.098Z,95094.41
2022-08-05T09:26:01.458Z,95098.31
2022-08-05T09:28:32.365Z,95105.31
2022-08-05T09:31:22.339Z,95096.00
2022-08-05T09:33:59.727Z,95085.91
2022-08-05T09:36:55.034Z,95082.66
2022-08-05T09:39:39.425Z,95091.59
2022-08-05T09:42:20.233Z,95074.25
2022-08-05T09:44:56.330Z,95079.69
2022-08-05T09:47:35.226Z,95075.81
2022-08-05T09:50:18.037Z,95071.88
2022-08-05T09:53:01.054Z,95069.94
2022-08-05T09:55:58.716Z,95071.16
2022-08-05T09:58:15.636Z,95071.13
2022-08-05T10:00:53.363Z,95078.09
2022-08-05T10:03:20.936Z,95065.69
2022-08-05T10:06:02.672Z,95067.91
2022-08-05T10:08:37.536Z,95059.78
2022-08-05T10:11:13.167Z,95058.19
2022-08-05T10:13:47.160Z,95051.06
2022-08-05T10:16:41.803Z,95043.00
2022-08-05T10:19:23.829Z,95050.78
2022-08-05T10:22:09.129Z,95047.06
2022-08-05T10:24:42.955Z,95038.94
2022-08-05T10:27:14.958Z,95037.03
2022-08-05T10:31:19.814Z,95042.50
2022-08-05T10:32:53.684Z,95038.28
2022-08-05T10:35:19.275Z,95033.13
2022-08-05T10:37:47.437Z,95035.75
2022-08-05T10:40:28.559Z,95010.53
2022-08-05T10:43:01.463Z,95036.19
2022-08-05T10:45:39.730Z,95039.59
2022-08-05T10:48:38.371Z,95022.47
2022-08-05T10:51:21.697Z,95030.69
2022-08-05T10:54:23.050Z,95027.47
2022-08-05T10:56:52.963Z,95013.72
2022-08-05T11:00:02.103Z,95014.13
2022-08-05T11:02:38.158Z,95014.69
2022-08-05T11:05:05.455Z,95012.13
2022-08-05T11:08:01.035Z,95008.25
2022-08-05T11:10:27.159Z,95004.22
2022-08-05T11:12:56.064Z,95002.06
2022-08-05T11:16:00.803Z,95009.56
2022-08-05T11:18:24.412Z,95008.38
2022-08-05T11:20:52.970Z,94995.84
2022-08-05T11:24:04.503Z,95001.06
2022-08-05T11:26:32.890Z,95000.81
2022-08-05T11:29:11.617Z,94998.56
2022-08-05T11:31:58.457Z,94989.59
2022-08-05T11:34:39.304Z,94992.75
2022-08-05T11:38:28.627Z,94986.09
2022-08-05T11:39:55.248Z,94980.97
2022-08-05T11:42:28.158Z,94972.88
2022-08-05T11:45:03.552Z,94983.44
2022-08-05T11:47:49.655Z,94987.56
2022-08-05T11:50:18.096Z,94982.47
2022-08-05T11:52:48.831Z,94980.78
2022-08-05T11:55:17.138Z,94985.47
2022-08-05T11:58:10.649Z,94979.81
2022-08-05T12:00:38.578Z,94974.47
2022-08-05T12:03:29.515Z,94977.53
2022-08-05T12:06:06.602Z,94966.41
2022-08-05T12:08:57.929Z,94971.25
2022-08-05T12:11:40.150Z,94957.38
2022-08-05T12:14:10.327Z,94970.31
2022-08-05T12:16:40.988Z,94967.56
2022-08-05T12:20:16.837Z,94963.44
2022-08-05T12:21:59.464Z,94954.34
2022-08-05T12:24:28.142Z,94955.31
2022-08-05T12:26:57.009Z,94955.09
2022-08-05T12:29:25.962Z,94957.88
2022-08-05T12:31:55.469Z,94955.72
2022-08-05T12:34:31.744Z,94952.41
2022-08-05T12:37:01.480Z,94951.06
2022-08-05T12:39:34.498Z,94939.59
2022-08-05T12:42:10.057Z,94946.97
2022-08-05T12:44:43.007Z,94938.16
2022-08-05T12:47:12.361Z,94943.41
2022-08-05T12:50:04.037Z,94931.47
2022-08-05T12:52:32.410Z,94935.31
2022-08-05T12:55:32.820Z,94921.59
2022-08-05T12:58:39.102Z,94935.00
2022-08-05T13:02:03.963Z,94935.09
2022-08-05T13:03:41.977Z,94935.84
2022-08-05T13:06:17.717Z,94934.50
2022-08-05T13:08:51.724Z,94926.47
2022-08-05T13:12:01.043Z,94924.38
2022-08-05T13:14:19.417Z,94923.66
2022-08-05T13:16:53.774Z,94920.88
2022-08-05T13:19:26.023Z,94915.03
2022-08-05T13:21:56.683Z,94919.59
2022-08-05T13:24:27.629Z,94908.63
2022-08-05T13:27:22.929Z,94906.66
2022-08-05T13:30:34.078Z,94903.97
2022-08-05T13:32:50.566Z,94907.16
2022-08-05T13:35:22.081Z,94898.16
2022-08-05T13:37:55.586Z,94904.47
2022-08-05T13:40:36.941Z,94890.88
2022-08-05T13:43:12.227Z,94900.56
2022-08-05T13:45:43.274Z,94893.69
2022-08-05T13:48:57.367Z,94886.94
2022-08-05T13:51:13.768Z,94891.50
2022-08-05T13:53:47.843Z,94892.13
2022-08-05T13:56:19.132Z,94893.56
2022-08-05T13:58:52.999Z,94896.03
2022-08-05T14:01:25.914Z,94885.72
2022-08-05T14:04:21.863Z,94885.91
2022-08-05T14:06:58.680Z,94881.94
2022-08-05T14:09:42.926Z,94878.78
2022-08-05T14:12:18.269Z,94878.44
2022-08-05T14:14:59.914Z,94882.91
2022-08-05T14:17:28.319Z,94874.06
2022-08-05T14:20:00.939Z,94871.53
2022-08-05T14:22:34.520Z,94863.19
2022-08-05T14:25:02.540Z,94865.81
2022-08-05T14:27:33.451Z,94862.63
2022-08-05T14:30:01.104Z,94869.91
2022-08-05T14:32:28.487Z,94863.75
2022-08-05T14:34:57.009Z,94866.25
2022-08-05T14:37:44.867Z,94868.44
2022-08-05T14:40:14.207Z,94865.41
2022-08-05T14:42:44.231Z,94856.97
2022-08-05T14:45:11.627Z,94856.28
2022-08-05T14:48:05.119Z,94862.13
2022-08-05T14:50:25.297Z,94847.75
2022-08-05T14:52:58.363Z,94854.41
2022-08-05T14:55:28.702Z,94845.88
2022-08-05T14:58:10.827Z,94847.22
2022-08-05T15:00:57.914Z,94836.50
2022-08-05T15:03:26.839Z,94844.44
2022-08-05T15:06:08.159Z,94845.44
2022-08-05T15:08:59.170Z,94845.06
2022-08-05T15:11:52.767Z,94833.38
2022-08-05T15:14:33.243Z,94820.00
2022-08-05T15:17:01.118Z,94834.91
2022-08-05T15:19:27.961Z,94836.44
2022-08-05T15:22:01.338Z,94831.78
2022-08-05T15:24:28.943Z,94830.81
2022-08-05T15:26:57.145Z,94823.44
2022-08-05T15:29:30.234Z,94832.19
2022-08-05T15:32:03.069Z,94823.31
2022-08-05T15:34:32.172Z,94822.72
2022-08-05T15:37:03.554Z,94814.94
2022-08-05T15:41:04.619Z,94823.69
2022-08-05T15:42:53.549Z,94821.53
2022-08-05T15:45:06.270Z,94815.31
2022-08-05T15:47:35.859Z,94831.16
2022-08-05T15:50:03.771Z,94811.84
2022-08-05T15:52:53.108Z,94820.06
2022-08-05T15:55:20.178Z,94827.19
2022-08-05T15:57:52.468Z,94823.84
2022-08-05T16:00:26.131Z,94819.81
2022-08-05T16:03:06.476Z,94823.13
2022-08-05T16:05:33.359Z,94821.97
2022-08-05T16:08:00.215Z,94818.53
2022-08-05T16:10:27.126Z,94818.09
2022-08-05T16:12:56.211Z,94822.69
2022-08-05T16:15:23.755Z,94823.66
2022-08-05T16:17:57.702Z,94817.16
2022-08-05T16:20:25.974Z,94812.38
2022-08-05T16:22:55.116Z,94822.03
2022-08-05T16:25:32.061Z,94825.56
2022-08-05T16:28:09.442Z,94824.38
2022-08-05T16:30:37.779Z,94826.78
2022-08-05T16:33:04.759Z,94830.50
2022-08-05T16:35:33.766Z,94829.09
2022-08-05T16:38:18.848Z,94828.63
2022-08-05T16:40:55.642Z,94821.59
2022-08-05T16:43:30.446Z,94831.34
2022-08-05T16:46:04.095Z,94833.19
2022-08-05T16:48:38.494Z,94835.72
2022-08-05T16:51:09.710Z,94844.09
2022-08-05T16:54:04.215Z,94831.66
2022-08-05T16:56:27.412Z,94830.69
2022-08-05T16:58:54.296Z,94839.78
2022-08-05T17:01:21.318Z,94841.09
2022-08-05T17:03:51.863Z,94840.88
2022-08-05T17:06:19.195Z,94843.91
2022-08-05T17:08:52.788Z,94844.63
2022-08-05T17:11:23.731Z,94843.31
2022-08-05T17:14:00.655Z,94845.03
2022-08-05T17:16:36.562Z,94844.16
2022-08-05T17:19:07.862Z,94850.34
2022-08-05T17:21:37.578Z,94828.03
2022-08-05T17:24:19.487Z,94837.28
2022-08-05T17:26:55.533Z,94851.75
2022-08-05T17:29:33.869Z,94844.75
2022-08-05T17:32:17.252Z,94849.38
2022-08-05T17:34:48.151Z,94861.38
2022-08-05T17:37:40.188Z,94855.66
2022-08-05T17:40:11.013Z,94855.06
2022-08-05T17:42:41.818Z,94861.84
2022-08-05T17:45:20.087Z,94862.03
2022-08-05T17:47:54.891Z,94857.34
2022-08-05T17:50:30.406Z,94860.53
2022-08-05T17:52:59.155Z,94866.88
2022-08-05T17:55:34.595Z,94871.41
2022-08-05T17:58:09.805Z,94859.66
2022-08-05T18:00:39.924Z,94868.56
2022-08-05T18:03:28.206Z,94872.38
2022-08-05T18:06:04.582Z,94870.25
2022-08-05T18:08:33.926Z,94877.09
2022-08-05T18:11:01.256Z,94877.81
2022-08-05T18:13:36.666Z,94881.75
2022-08-05T18:16:13.466Z,94881.84
2022-08-05T18:18:41.341Z,94884.41
2022-08-05T18:21:20.067Z,94887.84
2022-08-05T18:23:50.032Z,94890.19
2022-08-05T18:26:27.807Z,94899.47
2022-08-05T18:28:57.291Z,94893.94
2022-08-05T18:31:24.355Z,94886.50
2022-08-05T18:33:52.388Z,94891.06
2022-08-05T18:36:19.521Z,94899.91
2022-08-05T18:38:46.760Z,94899.78
2022-08-05T18:41:53.710Z,94902.22
2022-08-05T18:44:06.671Z,94901.38
2022-08-05T18:46:34.997Z,94896.81
2022-08-05T18:49:21.363Z,94901.50
2022-08-05T18:52:08.933Z,94895.00
2022-08-05T18:54:36.087Z,94915.16
2022-08-05T18:57:09.675Z,94919.41
2022-08-05T19:00:02.302Z,94902.75
2022-08-05T19:02:29.732Z,94912.06
2022-08-05T19:05:02.862Z,94917.13
2022-08-05T19:07:47.997Z,94914.34
2022-08-05T19:10:28.079Z,94920.97
2022-08-05T19:12:56.593Z,94911.69
2022-08-05T19:15:58.350Z,94922.53
2022-08-05T19:18:21.052Z,94912.47
2022-08-05T19:20:52.414Z,94907.84
2022-08-05T19:23:22.569Z,94913.81
2022-08-05T19:26:09.366Z,94912.41
2022-08-05T19:28:42.249Z,94909.31
2022-08-05T19:31:13.566Z,94918.63
2022-08-05T19:33:48.694Z,94901.56
2022-08-05T19:36:29.294Z,94910.09
2022-08-05T19:38:59.094Z,94911.50
2022-08-05T19:42:05.478Z,94917.28
2022-08-05T19:44:16.889Z,94916.84
2022-08-05T19:46:45.535Z,94921.50
2022-08-05T19:49:17.127Z,94914.16
2022-08-05T19:52:05.240Z,94911.41
2022-08-05T19:54:34.126Z,94923.22
2022-08-05T19:57:06.839Z,94918.06
2022-08-05T20:00:00.448Z,94924.53
2022-08-05T20:02:26.335Z,94913.38
2022-08-05T20:04:55.441Z,94918.47
2022-08-05T20:07:47.156Z,94913.28
2022-08-05T20:10:14.127Z,94918.38
2022-08-05T20:12:47.616Z,94915.16
2022-08-05T20:15:48.987Z,94910.50
2022-08-05T20:18:10.491Z,94911.34
2022-08-05T20:20:56.600Z,94917.41
2022-08-05T20:23:39.903Z,94913.50
2022-08-05T20:26:16.625Z,94911.53
2022-08-05T20:28:53.915Z,94912.66
2022-08-05T20:31:37.034Z,94906.25
2022-08-05T20:34:14.728Z,94910.06
2022-08-05T20:36:43.452Z,94909.41
2022-08-05T20:39:13.213Z,94909.25
2022-08-05T20:41:43.295Z,94909.88
2022-08-05T20:44:18.926Z,94895.19
2022-08-05T20:46:57.507Z,94904.59
2022-08-05T20:49:26.056Z,94894.50
2022-08-05T20:51:54.520Z,94914.28
2022-08-05T20:54:22.769Z,94900.97
2022-08-05T20:56:52.820Z,94910.56
2022-08-05T20:59:27.046Z,94893.25
2022-08-05T21:02:07.600Z,94900.38
2022-08-05T21:04:36.218Z,94911.91
2022-08-05T21:07:04.941Z,94914.72
2022-08-05T21:09:35.893Z,94911.00
2022-08-05T21:12:08.890Z,94907.22
2022-08-05T21:14:38.799Z,94902.88
2022-08-05T21:17:06.251Z,94899.88
2022-08-05T21:19:47.159Z,94906.78
2022-08-05T21:22:18.723Z,94905.97
2022-08-05T21:24:52.034Z,94894.44
2022-08-05T21:27:25.239Z,94887.94
2022-08-05T21:29:57.473Z,94909.84
2022-08-05T21:32:27.201Z,94901.78
2022-08-05T21:35:18.038Z,94913.84
2022-08-05T21:37:47.150Z,94904.13
2022-08-05T21:40:14.432Z,94896.56
2022-08-05T21:42:45.285Z,94912.56
2022-08-05T21:45:24.831Z,94910.91
2022-08-05T21:48:02.371Z,94908.88
2022-08-05T21:50:33.650Z,94915.13
2022-08-05T21:53:04.523Z,94911.16
2022-08-05T21:56:06.258Z,94911.63
2022-08-05T21:58:32.058Z,94917.91
2022-08-05T22:00:59.946Z,94910.81
2022-08-05T22:03:49.099Z,94899.03
2022-08-05T22:06:16.112Z,94904.13
2022-08-05T22:08:50.573Z,94907.03
2022-08-05T22:11:35.490Z,94914.09
2022-08-05T22:14:31.328Z,94916.25
2022-08-05T22:16:52.580Z,94904.66
2022-08-05T22:20:00.579Z,94914.69
2022-08-05T22:22:10.680Z,94898.66
2022-08-05T22:24:56.141Z,94916.25
2022-08-05T22:28:08.827Z,94913.84
2022-08-05T22:30:32.212Z,94909.25
2022-08-05T22:33:02.278Z,94912.06
2022-08-05T22:35:38.541Z,94903.41
2022-08-05T22:38:15.971Z,94916.66
2022-08-05T22:40:49.438Z,94911.94
2022-08-05T22:43:17.135Z,94905.94
2022-08-05T22:46:11.907Z,94904.38
2022-08-05T22:48:40.450Z,94911.91
2022-08-05T22:51:08.090Z,94912.94
2022-08-05T22:53:42.917Z,94900.94
2022-08-05T22:56:17.384Z,94900.22
2022-08-05T22:59:02.862Z,94887.75
2022-08-05T23:01:50.617Z,94905.00
2022-08-05T23:04:18.466Z,94903.31
2022-08-05T23:06:45.996Z,94909.63
2022-08-05T23:09:27.213Z,94899.97
2022-08-05T23:12:01.577Z,94907.00
2022-08-05T23:14:32.038Z,94904.47
2022-08-05T23:17:24.055Z,94903.66
2022-08-05T23:20:02.266Z,94900.44
2022-08-05T23:22:29.703Z,94903.28
2022-08-05T23:24:58.234Z,94896.53
2022-08-05T23:27:31.374Z,94891.34
2022-08-05T23:30:13.613Z,94881.38
2022-08-05T23:32:40.823Z,94904.47
2022-08-05T23:35:12.418Z,94906.88
2022-08-05T23:37:39.296Z,94907.81
2022-08-05T23:40:07.834Z,94908.31
2022-08-05T23:42:37.357Z,94898.22
2022-08-05T23:45:14.315Z,94904.06
2022-08-05T23:47:47.517Z,94887.81
2022-08-05T23:50:15.056Z,94904.44
2022-08-05T23:52:49.952Z,94905.66
2022-08-05T23:55:19.170Z,94902.94
2022-08-05T23:57:51.159Z,94905.25
